createdAt,value
2018-04-09T00:01:49.199Z,10.63
2018-04-09T00:04:19.130Z,10.53
2018-04-09T00:06:47.366Z,10.47
2018-04-09T00:09:15.581Z,10.40
2018-04-09T00:11:43.776Z,10.38
2018-04-09T00:14:12.029Z,10.35
2018-04-09T00:16:40.301Z,10.35
2018-04-09T00:19:10.362Z,10.30
2018-04-09T00:21:38.665Z,10.21
2018-04-09T00:24:06.900Z,10.17
2018-04-09T00:26:36.841Z,10.13
2018-04-09T00:29:05.064Z,10.09
2018-04-09T00:31:34.955Z,10.03
2018-04-09T00:34:03.173Z,9.91
2018-04-09T00:36:31.351Z,9.77
2018-04-09T00:39:01.251Z,9.74
2018-04-09T00:41:30.470Z,9.75
2018-04-09T00:43:58.624Z,9.83
2018-04-09T00:46:27.550Z,9.90
2018-04-09T00:48:57.591Z,9.94
2018-04-09T00:51:25.765Z,9.90
2018-04-09T00:53:59.950Z,9.89
2018-04-09T00:56:28.140Z,9.90
2018-04-09T00:58:56.340Z,9.88
2018-04-09T01:01:24.521Z,9.85
2018-04-09T01:03:52.708Z,9.76
2018-04-09T01:06:22.623Z,9.69
2018-04-09T01:08:53.486Z,9.65
2018-04-09T01:11:22.418Z,9.69
2018-04-09T01:13:50.591Z,9.71
2018-04-09T01:16:18.816Z,9.68
2018-04-09T01:18:47.025Z,9.68
2018-04-09T01:21:15.209Z,9.67
2018-04-09T01:23:43.382Z,9.72
2018-04-09T01:26:13.223Z,9.75
2018-04-09T01:28:41.461Z,9.77
2018-04-09T01:31:09.673Z,9.78
2018-04-09T01:33:37.888Z,9.72
2018-04-09T01:36:07.911Z,9.64
2018-04-09T01:38:36.118Z,9.59
2018-04-09T01:41:04.331Z,9.55
2018-04-09T01:43:32.533Z,9.46
2018-04-09T01:46:01.603Z,9.40
2018-04-09T01:48:30.633Z,9.33
2018-04-09T01:50:58.873Z,9.27
2018-04-09T01:53:27.877Z,9.26
2018-04-09T01:55:56.070Z,9.28
2018-04-09T01:58:24.257Z,9.35
2018-04-09T02:00:52.503Z,9.38
2018-04-09T02:03:23.593Z,9.38
2018-04-09T02:05:51.943Z,9.44
2018-04-09T02:08:21.754Z,9.45
2018-04-09T02:10:52.181Z,9.38
2018-04-09T02:13:22.265Z,9.31
2018-04-09T02:15:52.068Z,9.26
2018-04-09T02:18:20.275Z,9.26
2018-04-09T02:20:48.478Z,9.22
2018-04-09T02:23:16.710Z,9.20
2018-04-09T02:25:44.904Z,9.21
2018-04-09T02:28:14.683Z,9.23
2018-04-09T02:30:42.894Z,9.20
2018-04-09T02:33:11.082Z,9.22
2018-04-09T02:35:39.289Z,9.24
2018-04-09T02:38:07.481Z,9.20
2018-04-09T02:40:37.378Z,9.15
2018-04-09T02:43:05.605Z,9.11
2018-04-09T02:45:33.807Z,9.08
2018-04-09T02:48:02.135Z,9.06
2018-04-09T02:50:30.377Z,9.05
2018-04-09T02:52:59.278Z,9.09
2018-04-09T02:55:27.471Z,9.06
2018-04-09T02:57:56.723Z,9.07
2018-04-09T03:00:25.640Z,9.07
2018-04-09T03:02:53.881Z,9.07
2018-04-09T03:05:22.095Z,9.02
2018-04-09T03:07:50.303Z,8.95
2018-04-09T03:10:18.588Z,8.86
2018-04-09T03:12:46.778Z,8.80
2018-04-09T03:15:16.832Z,8.71
2018-04-09T03:17:44.998Z,8.67
2018-04-09T03:20:13.200Z,8.67
2018-04-09T03:22:42.329Z,8.70
2018-04-09T03:25:12.418Z,8.77
2018-04-09T03:27:40.606Z,8.86
2018-04-09T03:30:08.885Z,8.92
2018-04-09T03:32:37.084Z,8.96
2018-04-09T03:35:05.297Z,8.92
2018-04-09T03:37:33.503Z,8.87
2018-04-09T03:40:01.757Z,8.85
2018-04-09T03:42:30.729Z,8.83
2018-04-09T03:44:58.972Z,8.79
2018-04-09T03:47:29.803Z,8.80
2018-04-09T03:49:58.006Z,8.83
2018-04-09T03:52:26.370Z,8.86
2018-04-09T03:54:54.526Z,8.88
2018-04-09T03:57:22.837Z,8.88
2018-04-09T03:59:52.812Z,8.85
2018-04-09T04:02:21.039Z,8.79
2018-04-09T04:04:49.240Z,8.76
2018-04-09T04:07:17.477Z,8.76
2018-04-09T04:09:45.768Z,8.78
2018-04-09T04:12:13.973Z,8.77
2018-04-09T04:14:42.316Z,8.74
2018-04-09T04:17:22.258Z,8.72
2018-04-09T04:20:03.259Z,8.69
2018-04-09T04:22:33.132Z,8.66
2018-04-09T04:25:03.479Z,8.63
2018-04-09T04:27:34.041Z,8.62
2018-04-09T04:30:02.425Z,8.56
2018-04-09T04:32:31.466Z,8.47
2018-04-09T04:35:01.476Z,8.46
2018-04-09T04:37:29.657Z,8.47
2018-04-09T04:39:57.884Z,8.52
2018-04-09T04:42:26.141Z,8.52
2018-04-09T04:44:54.327Z,8.57
2018-04-09T04:47:22.553Z,8.55
2018-04-09T04:49:50.771Z,8.50
2018-04-09T04:52:19.234Z,8.47
2018-04-09T04:54:49.832Z,8.52
2018-04-09T04:57:19.264Z,8.53
2018-04-09T04:59:47.484Z,8.50
2018-04-09T05:02:15.891Z,8.49
2018-04-09T05:04:46.189Z,8.45
2018-04-09T05:07:16.953Z,8.42
2018-04-09T05:09:45.250Z,8.45
2018-04-09T05:12:13.460Z,8.45
2018-04-09T05:14:43.476Z,8.42
2018-04-09T05:17:12.410Z,8.45
2018-04-09T05:19:42.310Z,8.52
2018-04-09T05:22:12.106Z,8.58
2018-04-09T05:24:40.334Z,8.65
2018-04-09T05:27:08.530Z,8.72
2018-04-09T05:29:38.416Z,8.75
2018-04-09T05:32:09.324Z,8.82
2018-04-09T05:34:44.684Z,8.92
2018-04-09T05:37:15.050Z,8.97
2018-04-09T05:39:43.268Z,9.01
2018-04-09T05:42:12.612Z,9.03
2018-04-09T05:44:40.818Z,9.03
2018-04-09T05:47:09.008Z,9.03
2018-04-09T05:49:37.214Z,9.03
2018-04-09T05:52:05.399Z,9.04
2018-04-09T05:54:34.318Z,9.06
2018-04-09T05:57:04.490Z,9.09
2018-04-09T05:59:32.686Z,9.17
2018-04-09T06:02:02.026Z,9.23
2018-04-09T06:04:30.402Z,9.26
2018-04-09T06:07:01.487Z,9.23
2018-04-09T06:09:30.033Z,9.27
2018-04-09T06:11:58.260Z,9.33
2018-04-09T06:14:28.169Z,9.38
2018-04-09T06:16:56.483Z,9.40
2018-04-09T06:19:24.676Z,9.44
2018-04-09T06:21:55.594Z,9.50
2018-04-09T06:24:23.766Z,9.52
2018-04-09T06:26:51.952Z,9.53
2018-04-09T06:29:20.155Z,9.53
2018-04-09T06:31:48.562Z,9.54
2018-04-09T06:34:16.758Z,9.58
2018-04-09T06:36:45.019Z,9.65
2018-04-09T06:39:15.594Z,9.72
2018-04-09T06:41:45.517Z,9.76
2018-04-09T06:44:13.762Z,9.81
2018-04-09T06:46:41.946Z,9.87
2018-04-09T06:49:10.230Z,9.95
2018-04-09T06:51:38.425Z,10.07
2018-04-09T06:54:06.704Z,10.17
2018-04-09T06:56:34.900Z,10.27
2018-04-09T06:59:03.164Z,10.37
2018-04-09T07:01:31.374Z,10.47
2018-04-09T07:03:59.608Z,10.57
2018-04-09T07:06:27.874Z,10.70
2018-04-09T07:08:57.890Z,10.79
2018-04-09T07:11:26.140Z,10.87
2018-04-09T07:13:55.346Z,10.96
2018-04-09T07:16:23.590Z,11.07
2018-04-09T07:18:51.770Z,11.17
2018-04-09T07:21:19.969Z,11.23
2018-04-09T07:23:48.267Z,11.28
2018-04-09T07:26:16.482Z,11.36
2018-04-09T07:28:44.744Z,11.44
2018-04-09T07:31:14.551Z,11.46
2018-04-09T07:33:42.763Z,11.54
2018-04-09T07:36:12.702Z,11.60
2018-04-09T07:38:40.934Z,11.68
2018-04-09T07:41:09.396Z,11.75
2018-04-09T07:43:37.583Z,11.87
2018-04-09T07:46:07.689Z,12.00
2018-04-09T07:48:37.603Z,12.08
2018-04-09T07:51:08.052Z,12.17
2018-04-09T07:53:36.431Z,12.23
2018-04-09T07:56:05.522Z,12.30
2018-04-09T07:58:34.919Z,12.40
2018-04-09T08:01:03.229Z,12.55
2018-04-09T08:03:32.318Z,12.70
2018-04-09T08:06:00.582Z,12.80
2018-04-09T08:08:28.954Z,12.89
2018-04-09T08:10:57.167Z,12.97
2018-04-09T08:13:25.496Z,13.07
2018-04-09T08:15:53.761Z,13.20
2018-04-09T08:18:22.042Z,13.34
2018-04-09T08:20:50.264Z,13.47
2018-04-09T08:23:18.453Z,13.56
2018-04-09T08:25:46.682Z,13.72
2018-04-09T08:28:15.834Z,13.87
2018-04-09T08:30:44.014Z,14.02
2018-04-09T08:33:12.898Z,14.22
2018-04-09T08:35:41.111Z,14.38
2018-04-09T08:38:09.781Z,14.44
2018-04-09T08:40:38.068Z,14.50
2018-04-09T08:43:06.336Z,14.65
2018-04-09T08:45:37.176Z,14.76
2018-04-09T08:48:05.379Z,14.88
2018-04-09T08:50:35.227Z,14.97
2018-04-09T08:53:03.409Z,15.07
2018-04-09T08:55:33.446Z,15.19
2018-04-09T08:58:01.737Z,15.32
2018-04-09T09:00:30.028Z,15.40
2018-04-09T09:02:58.256Z,15.48
2018-04-09T09:05:26.456Z,15.50
2018-04-09T09:07:54.663Z,15.54
2018-04-09T09:10:23.080Z,15.63
2018-04-09T09:12:53.213Z,15.70
2018-04-09T09:15:24.226Z,15.82
2018-04-09T09:17:54.280Z,15.95
2018-04-09T09:20:25.428Z,16.10
2018-04-09T09:22:54.871Z,16.35
2018-04-09T09:25:25.307Z,16.61
2018-04-09T09:27:55.898Z,16.71
2018-04-09T09:30:24.148Z,16.73
2018-04-09T09:32:54.155Z,16.87
2018-04-09T09:35:24.265Z,17.00
2018-04-09T09:37:53.354Z,17.09
2018-04-09T09:40:21.533Z,17.30
2018-04-09T09:42:49.742Z,17.45
2018-04-09T09:45:19.675Z,17.41
2018-04-09T09:47:47.868Z,17.36
2018-04-09T09:50:17.851Z,17.27
2018-04-09T09:52:46.033Z,17.27
2018-04-09T09:55:14.998Z,17.36
2018-04-09T09:57:45.067Z,17.42
2018-04-09T10:00:14.053Z,17.30
2018-04-09T10:02:47.779Z,17.13
2018-04-09T10:05:16.718Z,17.16
2018-04-09T10:07:44.977Z,17.27
2018-04-09T10:10:13.999Z,17.28
2018-04-09T10:12:42.997Z,17.27
2018-04-09T10:15:11.283Z,17.28
2018-04-09T10:17:39.606Z,17.32
2018-04-09T10:20:07.918Z,17.36
2018-04-09T10:22:37.965Z,17.48
2018-04-09T10:25:06.174Z,17.67
2018-04-09T10:27:34.448Z,17.85
2018-04-09T10:30:02.709Z,17.98
2018-04-09T10:32:32.541Z,18.17
2018-04-09T10:35:00.779Z,18.35
2018-04-09T10:37:32.939Z,18.40
2018-04-09T10:40:03.022Z,18.60
2018-04-09T10:42:31.336Z,18.82
2018-04-09T10:44:59.623Z,18.95
2018-04-09T10:47:27.827Z,19.08
2018-04-09T10:49:56.022Z,19.17
2018-04-09T10:52:24.262Z,19.19
2018-04-09T10:54:52.487Z,19.32
2018-04-09T10:57:20.717Z,19.49
2018-04-09T10:59:49.163Z,19.65
2018-04-09T11:02:17.537Z,19.91
2018-04-09T11:04:45.713Z,20.06
2018-04-09T11:07:13.927Z,20.10
2018-04-09T11:09:42.160Z,20.16
2018-04-09T11:12:12.122Z,20.24
2018-04-09T11:14:40.357Z,20.25
2018-04-09T11:17:08.589Z,20.31
2018-04-09T11:19:36.805Z,20.46
2018-04-09T11:22:05.022Z,20.56
2018-04-09T11:24:33.257Z,20.53
2018-04-09T11:27:01.442Z,20.47
2018-04-09T11:29:29.832Z,20.45
2018-04-09T11:31:58.009Z,20.48
2018-04-09T11:34:26.209Z,20.39
2018-04-09T11:36:54.439Z,20.47
2018-04-09T11:39:22.648Z,20.47
2018-04-09T11:41:50.895Z,20.54
2018-04-09T11:44:19.082Z,20.63
2018-04-09T11:46:48.062Z,20.78
2018-04-09T11:49:16.303Z,20.90
2018-04-09T11:51:45.279Z,20.88
2018-04-09T11:54:13.519Z,20.96
2018-04-09T11:56:41.750Z,21.06
2018-04-09T11:59:09.984Z,21.28
2018-04-09T12:01:40.814Z,21.27
2018-04-09T12:04:09.043Z,21.22
2018-04-09T12:06:41.706Z,21.20
2018-04-09T12:09:11.044Z,21.26
2018-04-09T12:11:39.247Z,21.24
2018-04-09T12:14:07.461Z,21.27
2018-04-09T12:16:35.694Z,21.28
2018-04-09T12:19:03.944Z,21.37
2018-04-09T12:21:32.160Z,21.43
2018-04-09T12:24:00.367Z,21.41
2018-04-09T12:26:28.585Z,21.41
2018-04-09T12:28:56.866Z,21.38
2018-04-09T12:31:25.857Z,21.36
2018-04-09T12:33:54.240Z,21.38
2018-04-09T12:36:24.154Z,21.41
2018-04-09T12:38:54.289Z,21.42
2018-04-09T12:41:22.548Z,21.44
2018-04-09T12:43:50.831Z,21.52
2018-04-09T12:46:19.064Z,21.55
2018-04-09T12:48:47.296Z,21.69
2018-04-09T12:51:15.484Z,21.73
2018-04-09T12:53:43.717Z,21.72
2018-04-09T12:56:11.924Z,21.75
2018-04-09T12:58:40.101Z,21.76
2018-04-09T13:03:35.551Z,21.97
2018-04-09T13:06:03.815Z,22.01
2018-04-09T13:08:32.011Z,22.07
2018-04-09T13:11:00.205Z,22.14
2018-04-09T13:13:28.404Z,22.11
2018-04-09T13:15:56.582Z,22.02
2018-04-09T13:18:24.816Z,21.95
2018-04-09T13:20:53.088Z,21.87
2018-04-09T13:23:21.284Z,21.84
2018-04-09T13:25:49.533Z,21.73
2018-04-09T13:28:17.728Z,21.68
2018-04-09T13:30:47.562Z,21.72
2018-04-09T13:33:15.748Z,21.68
2018-04-09T13:35:44.740Z,21.74
2018-04-09T13:38:12.930Z,21.79
2018-04-09T13:40:41.880Z,21.81
2018-04-09T13:43:10.128Z,21.84
2018-04-09T13:45:40.443Z,21.80
2018-04-09T13:48:12.168Z,21.76
2018-04-09T13:50:40.401Z,21.63
2018-04-09T13:53:11.505Z,21.58
2018-04-09T13:55:39.858Z,21.53
2018-04-09T13:58:08.829Z,21.51
2018-04-09T14:00:37.068Z,21.46
2018-04-09T14:03:05.258Z,21.44
2018-04-09T14:05:33.449Z,21.45
2018-04-09T14:08:01.614Z,21.48
2018-04-09T14:10:30.067Z,21.46
2018-04-09T14:13:01.037Z,21.53
2018-04-09T14:15:29.309Z,21.58
2018-04-09T14:17:57.662Z,21.61
2018-04-09T14:20:27.579Z,21.65
2018-04-09T14:22:55.780Z,21.73
2018-04-09T14:25:23.957Z,21.75
2018-04-09T14:27:52.173Z,21.76
2018-04-09T14:30:20.419Z,21.83
2018-04-09T14:32:48.753Z,21.82
2018-04-09T14:35:17.032Z,21.88
2018-04-09T14:37:45.270Z,21.95
2018-04-09T14:40:13.482Z,22.09
2018-04-09T14:42:41.678Z,22.14
2018-04-09T14:45:10.017Z,22.22
2018-04-09T14:47:45.038Z,22.22
2018-04-09T14:50:13.360Z,22.15
2018-04-09T14:52:41.575Z,21.95
2018-04-09T14:55:09.811Z,21.88
2018-04-09T14:57:41.487Z,21.89
2018-04-09T15:00:11.426Z,21.91
2018-04-09T15:02:40.359Z,21.96
2018-04-09T15:05:12.038Z,21.91
2018-04-09T15:07:41.089Z,21.86
2018-04-09T15:10:09.281Z,21.74
2018-04-09T15:12:40.307Z,21.64
2018-04-09T15:15:09.093Z,21.58
2018-04-09T15:17:38.368Z,21.57
2018-04-09T15:20:06.551Z,21.54
2018-04-09T15:22:37.698Z,21.54
2018-04-09T15:25:07.688Z,21.60
2018-04-09T15:27:39.638Z,21.76
2018-04-09T15:30:09.861Z,21.82
2018-04-09T15:32:38.094Z,21.76
2018-04-09T15:35:08.357Z,21.70
2018-04-09T15:37:38.462Z,21.68
2018-04-09T15:40:06.769Z,21.68
2018-04-09T15:42:34.941Z,21.70
2018-04-09T15:45:03.152Z,21.69
2018-04-09T15:47:32.310Z,21.64
2018-04-09T15:50:03.622Z,21.64
2018-04-09T15:52:32.031Z,21.72
2018-04-09T15:55:00.249Z,21.87
2018-04-09T15:57:28.517Z,21.98
2018-04-09T15:59:56.817Z,21.99
2018-04-09T16:02:27.724Z,21.97
2018-04-09T16:04:55.914Z,21.92
2018-04-09T16:07:35.841Z,21.88
2018-04-09T16:10:05.074Z,21.76
2018-04-09T16:12:33.284Z,21.63
2018-04-09T16:15:01.501Z,21.49
2018-04-09T16:17:29.713Z,21.42
2018-04-09T16:19:57.941Z,21.37
2018-04-09T16:22:26.202Z,21.27
2018-04-09T16:24:54.404Z,21.19
2018-04-09T16:27:23.550Z,21.05
2018-04-09T16:29:52.473Z,20.93
2018-04-09T16:32:20.770Z,20.82
2018-04-09T16:34:48.975Z,20.77
2018-04-09T16:37:17.243Z,20.69
2018-04-09T16:39:45.446Z,20.63
2018-04-09T16:42:13.700Z,20.59
2018-04-09T16:44:43.665Z,20.54
2018-04-09T16:47:12.701Z,20.48
2018-04-09T16:49:42.176Z,20.39
2018-04-09T16:52:10.426Z,20.31
2018-04-09T16:54:39.677Z,20.23
2018-04-09T16:57:07.921Z,20.15
2018-04-09T16:59:40.063Z,20.07
2018-04-09T17:02:09.014Z,20.02
2018-04-09T17:04:38.950Z,19.96
2018-04-09T17:07:07.134Z,19.91
2018-04-09T17:09:37.086Z,19.85
2018-04-09T17:12:09.092Z,19.78
2018-04-09T17:14:38.363Z,19.70
2018-04-09T17:17:07.062Z,19.62
2018-04-09T17:19:35.271Z,19.56
2018-04-09T17:22:03.518Z,19.48
2018-04-09T17:24:31.693Z,19.40
2018-04-09T17:26:59.905Z,19.32
2018-04-09T17:29:28.116Z,19.24
2018-04-09T17:31:58.317Z,19.15
2018-04-09T17:34:28.385Z,19.06
2018-04-09T17:36:56.608Z,18.98
2018-04-09T17:39:24.895Z,18.88
2018-04-09T17:41:53.168Z,18.80
2018-04-09T17:44:21.563Z,18.68
2018-04-09T17:46:49.769Z,18.59
2018-04-09T17:49:18.126Z,18.49
2018-04-09T17:51:49.055Z,18.40
2018-04-09T17:54:18.057Z,18.30
2018-04-09T17:56:46.747Z,18.20
2018-04-09T17:59:14.967Z,18.11
2018-04-09T18:01:43.287Z,18.01
2018-04-09T18:04:12.310Z,17.91
2018-04-09T18:06:40.560Z,17.80
2018-04-09T18:09:10.899Z,17.70
2018-04-09T18:11:45.573Z,17.62
2018-04-09T18:14:16.423Z,17.51
2018-04-09T18:16:45.894Z,17.40
2018-04-09T18:19:15.868Z,17.31
2018-04-09T18:21:44.105Z,17.20
2018-04-09T18:24:14.846Z,17.12
2018-04-09T18:26:49.855Z,17.05
2018-04-09T18:29:29.989Z,16.97
2018-04-09T18:31:59.924Z,16.89
2018-04-09T18:34:31.846Z,16.81
2018-04-09T18:37:02.027Z,16.72
2018-04-09T18:39:30.293Z,16.63
2018-04-09T18:41:59.760Z,16.52
2018-04-09T18:44:28.244Z,16.40
2018-04-09T18:46:58.358Z,16.27
2018-04-09T18:49:27.312Z,16.11
2018-04-09T18:51:58.042Z,16.07
2018-04-09T18:54:27.489Z,16.04
2018-04-09T18:56:55.709Z,15.99
2018-04-09T18:59:24.803Z,15.94
2018-04-09T19:01:53.055Z,15.90
2018-04-09T19:04:21.281Z,15.87
2018-04-09T19:06:49.560Z,15.84
2018-04-09T19:09:17.803Z,15.77
2018-04-09T19:11:46.998Z,15.67
2018-04-09T19:14:18.152Z,15.62
2018-04-09T19:16:46.495Z,15.50
2018-04-09T19:19:15.950Z,15.38
2018-04-09T19:21:44.947Z,15.28
2018-04-09T19:24:15.802Z,15.20
2018-04-09T19:26:44.105Z,15.12
2018-04-09T19:29:13.099Z,15.04
2018-04-09T19:31:41.316Z,14.96
2018-04-09T19:34:09.583Z,14.90
2018-04-09T19:36:45.089Z,14.84
2018-04-09T19:39:21.728Z,14.80
2018-04-09T19:42:07.576Z,14.78
2018-04-09T19:44:37.655Z,14.76
2018-04-09T19:47:23.582Z,14.73
2018-04-09T19:49:51.848Z,14.69
2018-04-09T19:52:21.126Z,14.64
2018-04-09T19:54:49.431Z,14.58
2018-04-09T19:57:17.657Z,14.48
2018-04-09T19:59:45.911Z,14.38
2018-04-09T20:02:15.074Z,14.34
2018-04-09T20:04:45.123Z,14.33
2018-04-09T20:07:14.112Z,14.29
2018-04-09T20:09:46.341Z,14.24
2018-04-09T20:12:14.772Z,14.16
2018-04-09T20:14:44.889Z,14.05
2018-04-09T20:17:13.088Z,13.92
2018-04-09T20:19:41.304Z,13.84
2018-04-09T20:22:09.563Z,13.78
2018-04-09T20:24:37.751Z,13.71
2018-04-09T20:27:05.934Z,13.66
2018-04-09T20:29:34.162Z,13.61
2018-04-09T20:32:02.382Z,13.54
2018-04-09T20:34:32.318Z,13.45
2018-04-09T20:37:00.547Z,13.37
2018-04-09T20:39:29.728Z,13.30
2018-04-09T20:41:59.721Z,13.24
2018-04-09T20:44:28.045Z,13.20
2018-04-09T20:46:56.360Z,13.17
2018-04-09T20:49:24.574Z,13.11
2018-04-09T20:51:52.763Z,13.05
2018-04-09T20:54:21.125Z,12.98
2018-04-09T20:56:49.355Z,12.93
2018-04-09T20:59:17.555Z,12.89
2018-04-09T21:01:45.773Z,12.84
2018-04-09T21:04:16.646Z,12.83
2018-04-09T21:06:44.899Z,12.80
2018-04-09T21:09:13.188Z,12.80
2018-04-09T21:11:41.406Z,12.80
2018-04-09T21:14:09.645Z,12.78
2018-04-09T21:16:39.580Z,12.76
2018-04-09T21:19:07.809Z,12.69
2018-04-09T21:21:36.190Z,12.59
2018-04-09T21:24:06.297Z,12.51
2018-04-09T21:26:35.157Z,12.43
2018-04-09T21:29:06.301Z,12.35
2018-04-09T21:31:35.492Z,12.22
2018-04-09T21:34:06.266Z,12.14
2018-04-09T21:36:35.301Z,12.09
2018-04-09T21:39:03.566Z,12.01
2018-04-09T21:41:34.277Z,11.99
2018-04-09T21:44:04.380Z,11.97
2018-04-09T21:46:32.570Z,11.91
2018-04-09T21:49:00.800Z,11.86
2018-04-09T21:51:29.000Z,11.82
2018-04-09T21:53:57.288Z,11.83
2018-04-09T21:56:25.487Z,11.83
2018-04-09T21:58:55.380Z,11.80
2018-04-09T22:01:23.606Z,11.79
2018-04-09T22:03:51.769Z,11.76
2018-04-09T22:06:19.998Z,11.74
2018-04-09T22:08:48.199Z,11.68
2018-04-09T22:11:19.667Z,11.62
2018-04-09T22:13:49.423Z,11.59
2018-04-09T22:16:17.699Z,11.55
2018-04-09T22:18:46.854Z,11.53
2018-04-09T22:21:15.135Z,11.52
2018-04-09T22:23:46.168Z,11.52
2018-04-09T22:26:14.543Z,11.49
2018-04-09T22:28:42.834Z,11.45
2018-04-09T22:31:11.027Z,11.42
2018-04-09T22:33:39.289Z,11.42
2018-04-09T22:36:08.216Z,11.38
2018-04-09T22:38:38.209Z,11.32
2018-04-09T22:41:06.395Z,11.29
2018-04-09T22:43:34.643Z,11.27
2018-04-09T22:46:02.931Z,11.25
2018-04-09T22:48:31.197Z,11.25
2018-04-09T22:51:00.942Z,11.23
2018-04-09T22:53:29.619Z,11.21
2018-04-09T22:55:57.851Z,11.17
2018-04-09T22:58:27.786Z,11.15
2018-04-09T23:00:55.975Z,11.13
2018-04-09T23:03:24.153Z,11.15
2018-04-09T23:05:52.356Z,11.34
2018-04-09T23:08:20.544Z,11.63
2018-04-09T23:10:48.742Z,11.87
2018-04-09T23:13:17.016Z,12.09
2018-04-09T23:15:45.952Z,12.23
2018-04-09T23:18:14.161Z,12.28
2018-04-09T23:20:42.944Z,12.12
2018-04-09T23:23:11.966Z,11.81
2018-04-09T23:25:40.147Z,11.60
2018-04-09T23:28:08.346Z,11.40
2018-04-09T23:30:36.522Z,11.29
2018-04-09T23:33:05.424Z,11.24
2018-04-09T23:35:35.396Z,11.27
2018-04-09T23:38:05.214Z,11.23
2018-04-09T23:40:33.412Z,11.18
2018-04-09T23:43:01.598Z,11.12
2018-04-09T23:45:29.904Z,11.09
2018-04-09T23:47:58.826Z,11.06
2018-04-09T23:50:27.026Z,11.02
2018-04-09T23:52:55.308Z,11.01
2018-04-09T23:55:23.494Z,10.98
2018-04-09T23:57:52.420Z,10.97
